Time;durP1;ratioP1;P1;durP2;ratioP2;P2;SDS_P1;SDS_P2;PMS_P1;PMS_P2;Temp;Humidity;BMP_temperature;BMP_pressure;BME280_temperature;BME280_humidity;BME280_pressure;Samples;Min_cycle;Max_cycle;Signal;HPM_P1;HPM_P2
2023/10/05 14:41:01;;;;;;;7.32;2.45;;;19.00;69.70;;;;;;5090776;27;20385;-89
2023/10/05 14:43:35;;;;;;;6.35;2.20;;;19.30;68.80;;;;;;5073119;28;20095;-88
2023/10/05 14:46:05;;;;;;;9.50;2.42;;;19.20;69.50;;;;;;5052841;28;20076;-89
2023/10/05 14:48:31;;;;;;;5.32;1.88;;;19.20;70.00;;;;;;5102093;28;20066;-89
2023/10/05 14:51:01;;;;;;;4.93;1.88;;;19.20;69.90;;;;;;5098449;28;21417;-89
2023/10/05 14:53:28;;;;;;;8.15;1.80;;;19.20;69.80;;;;;;5054063;28;20033;-90
2023/10/05 14:55:56;;;;;;;7.22;2.13;;;19.10;69.50;;;;;;5051176;28;20064;-90
2023/10/05 14:58:22;;;;;;;5.90;2.13;;;19.10;69.60;;;;;;5071925;28;20049;-89
2023/10/05 15:00:48;;;;;;;5.25;1.67;;;19.30;69.70;;;;;;5068798;28;20037;-90
2023/10/05 15:03:15;;;;;;;6.38;2.13;;;19.10;69.50;;;;;;5069397;28;20511;-90
2023/10/05 15:05:43;;;;;;;8.02;2.20;;;19.10;69.40;;;;;;5068880;28;20037;-89
2023/10/05 15:08:11;;;;;;;8.30;2.78;;;19.10;69.30;;;;;;5085822;28;20048;-89
2023/10/05 15:10:40;;;;;;;8.00;1.77;;;19.20;69.30;;;;;;5085004;28;20040;-90
2023/10/05 15:13:06;;;;;;;7.57;2.10;;;19.10;69.30;;;;;;5097603;28;20044;-89
2023/10/05 15:15:32;;;;;;;7.15;1.95;;;19.20;69.60;;;;;;5101925;28;20056;-88
2023/10/05 15:17:58;;;;;;;6.35;1.60;;;19.20;69.20;;;;;;5068028;28;20400;-89
2023/10/05 15:20:24;;;;;;;9.68;2.10;;;19.20;68.80;;;;;;5067574;28;20033;-89
2023/10/05 15:22:54;;;;;;;7.03;2.00;;;19.20;68.60;;;;;;5084915;28;20056;-90
2023/10/05 15:25:21;;;;;;;6.15;1.77;;;19.20;68.80;;;;;;5068370;28;20036;-90
2023/10/05 15:27:49;;;;;;;5.57;1.73;;;19.20;69.00;;;;;;5067349;28;20148;-89
2023/10/05 15:30:16;;;;;;;6.95;1.90;;;19.20;69.00;;;;;;5067706;28;20046;-91
2023/10/05 15:32:49;;;;;;;6.97;2.00;;;19.20;69.30;;;;;;5068160;28;20128;-89
2023/10/05 15:35:16;;;;;;;9.07;2.53;;;19.20;68.60;;;;;;5084893;28;20460;-89
2023/10/05 15:37:44;;;;;;;7.97;2.42;;;19.20;68.70;;;;;;5051215;28;20067;-89
2023/10/05 15:40:14;;;;;;;7.90;2.47;;;19.20;68.70;;;;;;5067452;28;20131;-90
2023/10/05 15:42:48;;;;;;;8.55;2.50;;;19.20;68.80;;;;;;5071484;28;20116;-90
2023/10/05 15:45:16;;;;;;;5.85;1.52;;;19.20;68.90;;;;;;5067477;28;20051;-89
2023/10/05 15:47:43;;;;;;;6.95;2.63;;;19.20;69.00;;;;;;5067901;28;20045;-89
2023/10/05 15:50:13;;;;;;;4.60;1.58;;;19.10;69.10;;;;;;5079017;28;20442;-89
2023/10/05 15:52:44;;;;;;;4.80;1.45;;;19.20;69.10;;;;;;5088038;28;20060;-88
2023/10/05 15:55:11;;;;;;;7.32;1.60;;;19.10;69.10;;;;;;5059547;28;20041;-89
2023/10/05 15:57:39;;;;;;;5.45;1.85;;;19.10;69.10;;;;;;5038094;28;20048;-90
2023/10/05 16:00:15;;;;;;;5.25;1.40;;;19.10;69.10;;;;;;5045847;28;20033;-88
2023/10/05 16:02:45;;;;;;;6.38;1.60;;;19.10;69.20;;;;;;5066113;28;20041;-90
2023/10/05 16:05:12;;;;;;;7.25;1.85;;;19.10;69.30;;;;;;5080303;28;20041;-89
2023/10/05 16:07:39;;;;;;;6.40;1.50;;;19.10;69.40;;;;;;5037769;28;20041;-89
2023/10/05 16:10:09;;;;;;;5.00;1.17;;;19.10;69.40;;;;;;5053779;28;20154;-89
2023/10/05 16:12:34;;;;;;;6.32;1.63;;;19.10;69.40;;;;;;5054527;28;20541;-90
2023/10/05 16:15:00;;;;;;;7.03;1.80;;;19.00;69.70;;;;;;5055585;28;20041;-91
2023/10/05 16:17:28;;;;;;;5.20;1.50;;;19.10;69.40;;;;;;5071991;28;20041;-90
2023/10/05 16:19:54;;;;;;;6.32;1.58;;;19.10;69.40;;;;;;5084249;28;20037;-90
2023/10/05 16:22:21;;;;;;;6.43;1.70;;;19.00;69.00;;;;;;5048290;28;20046;-94
2023/10/05 16:24:47;;;;;;;5.43;1.85;;;19.00;68.70;;;;;;5054918;28;20481;-90
2023/10/05 16:27:13;;;;;;;7.60;1.90;;;18.90;68.60;;;;;;5061298;28;20144;-90
2023/10/05 16:29:39;;;;;;;5.88;1.55;;;18.90;68.60;;;;;;5054289;28;20033;-89
2023/10/05 16:32:05;;;;;;;4.35;1.45;;;18.90;68.20;;;;;;5053644;28;20382;-89
2023/10/05 16:34:35;;;;;;;5.75;1.77;;;18.90;68.10;;;;;;5040080;28;20029;-88
2023/10/05 16:37:00;;;;;;;4.20;1.65;;;18.80;67.80;;;;;;5060555;28;20087;-88
2023/10/05 16:39:26;;;;;;;6.40;2.28;;;18.80;67.80;;;;;;5076146;28;20045;-88
2023/10/05 16:41:52;;;;;;;4.07;1.75;;;18.80;67.90;;;;;;5056929;28;20041;-89
2023/10/05 16:44:18;;;;;;;6.28;1.88;;;18.70;67.90;;;;;;5048407;28;20105;-90
2023/10/05 16:46:43;;;;;;;5.35;1.60;;;18.70;68.10;;;;;;5064444;28;20150;-88
2023/10/05 16:49:09;;;;;;;5.35;2.05;;;18.70;68.30;;;;;;5058349;28;20051;-92
2023/10/05 16:51:35;;;;;;;7.00;1.92;;;18.70;68.50;;;;;;5039195;28;20041;-90
2023/10/05 16:54:00;;;;;;;6.03;1.50;;;18.60;68.60;;;;;;5039560;28;20120;-89
2023/10/05 16:56:27;;;;;;;4.93;1.60;;;18.60;68.70;;;;;;5056848;28;20078;-89
2023/10/05 16:58:54;;;;;;;7.13;1.85;;;18.60;68.70;;;;;;5057565;28;20044;-91
2023/10/05 17:01:20;;;;;;;6.25;2.05;;;18.60;68.80;;;;;;5055791;28;20048;-94
2023/10/05 17:03:45;;;;;;;6.85;2.35;;;18.50;68.90;;;;;;5057019;28;20068;-94
2023/10/05 17:06:11;;;;;;;5.10;2.05;;;18.50;69.00;;;;;;5056561;28;20123;-94
2023/10/05 17:08:37;;;;;;;6.55;2.05;;;18.40;69.00;;;;;;5054408;28;20071;-94
2023/10/05 17:11:02;;;;;;;3.85;1.98;;;18.40;69.10;;;;;;5070708;28;20400;-95
2023/10/05 17:13:29;;;;;;;6.50;2.00;;;18.10;69.00;;;;;;5036669;28;20127;-93
2023/10/05 17:15:54;;;;;;;4.95;2.25;;;18.40;69.30;;;;;;5054463;28;20094;-94
2023/10/05 17:18:20;;;;;;;5.78;1.65;;;18.40;69.40;;;;;;5070323;28;20041;-91
2023/10/05 17:20:45;;;;;;;5.05;2.15;;;18.30;69.40;;;;;;5069545;28;20342;-91
2023/10/05 17:23:11;;;;;;;4.65;1.98;;;18.30;69.50;;;;;;5036439;28;20044;-91
2023/10/05 17:25:39;;;;;;;6.30;1.90;;;18.20;69.60;;;;;;5035965;28;20115;-88
2023/10/05 17:28:05;;;;;;;4.90;1.90;;;18.20;69.70;;;;;;5052711;28;20052;-89
2023/10/05 17:30:31;;;;;;;6.05;2.35;;;18.20;69.80;;;;;;5069124;28;20049;-89
2023/10/05 17:32:56;;;;;;;3.42;1.90;;;18.20;69.80;;;;;;5068938;28;20048;-88
2023/10/05 17:35:22;;;;;;;6.70;2.22;;;18.10;69.90;;;;;;5065257;28;20041;-87
2023/10/05 17:37:49;;;;;;;5.55;2.10;;;18.10;70.00;;;;;;5049703;28;20489;-88
2023/10/05 17:40:14;;;;;;;4.65;1.90;;;18.00;70.10;;;;;;5054178;28;20132;-87
2023/10/05 17:42:40;;;;;;;6.32;2.38;;;18.00;70.20;;;;;;5030481;28;20097;-87
2023/10/05 17:45:09;;;;;;;5.65;2.03;;;18.10;70.40;;;;;;5031732;28;20083;-87
2023/10/05 17:47:35;;;;;;;6.32;2.10;;;17.90;70.40;;;;;;5082843;28;20064;-87
2023/10/05 17:50:02;;;;;;;6.07;2.20;;;17.90;70.50;;;;;;5042543;28;20110;-87
2023/10/05 17:52:28;;;;;;;6.38;2.65;;;17.80;70.50;;;;;;5036391;28;20033;-88
2023/10/05 17:54:53;;;;;;;6.60;2.75;;;17.80;70.70;;;;;;5034859;28;20500;-88
2023/10/05 17:57:19;;;;;;;6.25;2.17;;;17.80;70.80;;;;;;5051615;28;20043;-88
2023/10/05 17:59:47;;;;;;;5.70;1.95;;;17.70;70.90;;;;;;5058993;28;20041;-88
2023/10/05 18:02:14;;;;;;;6.57;2.38;;;17.70;71.00;;;;;;5034435;28;20076;-88
2023/10/05 18:04:40;;;;;;;6.82;2.55;;;17.70;71.10;;;;;;5050965;28;20095;-89
2023/10/05 18:07:06;;;;;;;5.97;2.15;;;17.60;71.20;;;;;;5045838;28;20408;-88
2023/10/05 18:09:34;;;;;;;7.43;2.50;;;17.50;71.20;;;;;;5068051;28;20603;-87
2023/10/05 18:12:01;;;;;;;6.53;2.60;;;17.50;71.30;;;;;;5050941;28;20481;-87
2023/10/05 18:14:27;;;;;;;8.05;2.63;;;17.50;71.50;;;;;;5051234;28;20163;-87
2023/10/05 18:16:54;;;;;;;8.05;2.45;;;17.70;71.70;;;;;;5061634;28;20067;-87
2023/10/05 18:19:21;;;;;;;5.20;2.67;;;17.40;71.70;;;;;;5057224;28;20033;-88
2023/10/05 18:21:48;;;;;;;9.00;2.75;;;17.40;71.80;;;;;;5047610;28;20037;-87
2023/10/05 18:24:14;;;;;;;7.32;2.75;;;17.40;71.90;;;;;;5045555;28;20427;-86
2023/10/05 18:26:42;;;;;;;6.15;2.55;;;17.30;72.00;;;;;;5057769;28;20039;-87
2023/10/05 18:29:09;;;;;;;6.25;3.30;;;17.30;72.10;;;;;;5068555;28;20037;-88
2023/10/05 18:31:34;;;;;;;7.22;3.20;;;17.20;72.10;;;;;;5035619;28;20043;-87
2023/10/05 18:34:00;;;;;;;7.15;3.47;;;17.20;72.20;;;;;;5053557;28;20396;-87
2023/10/05 18:36:26;;;;;;;5.60;2.97;;;17.10;72.20;;;;;;5070179;28;20033;-87
2023/10/05 18:38:52;;;;;;;7.03;3.03;;;17.20;72.40;;;;;;5053802;28;20041;-88
2023/10/05 18:41:21;;;;;;;7.55;3.40;;;17.10;72.50;;;;;;5036460;28;20029;-88
2023/10/05 18:43:49;;;;;;;7.85;3.40;;;17.00;72.50;;;;;;5070073;28;20512;-88
2023/10/05 18:46:15;;;;;;;8.10;2.95;;;17.00;72.60;;;;;;5070402;28;20032;-89
2023/10/05 18:48:42;;;;;;;6.97;3.38;;;17.00;72.60;;;;;;5052756;28;20037;-88
2023/10/05 18:51:08;;;;;;;8.73;3.60;;;17.20;73.20;;;;;;5069220;28;20047;-87
2023/10/05 18:53:34;;;;;;;8.35;3.55;;;16.90;72.70;;;;;;5036472;28;20029;-88
2023/10/05 18:56:00;;;;;;;5.78;2.88;;;17.00;72.80;;;;;;5047235;28;20033;-88
2023/10/05 18:58:26;;;;;;;7.65;3.63;;;16.80;72.80;;;;;;5037643;28;20059;-88
2023/10/05 19:00:56;;;;;;;8.20;3.50;;;16.80;72.90;;;;;;5060026;28;20231;-88
2023/10/05 19:03:23;;;;;;;7.82;3.03;;;16.70;73.00;;;;;;5042075;28;20044;-88
2023/10/05 19:05:49;;;;;;;8.35;3.63;;;16.70;73.20;;;;;;5053408;28;20087;-88
2023/10/05 19:08:15;;;;;;;6.57;3.28;;;16.70;73.20;;;;;;5052451;28;20039;-88
2023/10/05 19:10:40;;;;;;;7.28;2.85;;;16.60;73.20;;;;;;5069559;28;20036;-88
2023/10/05 19:13:06;;;;;;;8.38;2.72;;;16.60;73.30;;;;;;5069285;28;20041;-88
2023/10/05 19:15:33;;;;;;;5.35;2.75;;;16.60;73.40;;;;;;5053815;28;20033;-88
2023/10/05 19:17:59;;;;;;;8.10;3.30;;;16.50;73.50;;;;;;5037111;28;20052;-88
2023/10/05 19:20:24;;;;;;;9.80;3.13;;;16.50;73.50;;;;;;5053521;28;20037;-90
2023/10/05 19:22:50;;;;;;;10.45;3.08;;;16.70;73.80;;;;;;5052423;28;20037;-89
2023/10/05 19:25:16;;;;;;;7.35;2.88;;;16.70;73.90;;;;;;5071680;28;20037;-89
2023/10/05 19:27:42;;;;;;;7.93;3.00;;;16.50;74.00;;;;;;5081549;28;20044;-93
2023/10/05 19:30:10;;;;;;;7.22;3.42;;;16.40;74.00;;;;;;5042808;28;20040;-94
2023/10/05 19:32:42;;;;;;;7.18;2.90;;;16.40;74.10;;;;;;5059028;28;20041;-93
2023/10/05 19:35:21;;;;;;;5.03;2.80;;;16.30;74.20;;;;;;5061571;28;20040;-92
2023/10/05 19:37:46;;;;;;;8.50;3.58;;;16.40;74.30;;;;;;5049322;28;20032;-96
2023/10/05 19:40:12;;;;;;;7.55;3.15;;;16.30;74.40;;;;;;5062470;28;20087;-96
2023/10/05 19:42:38;;;;;;;5.47;2.95;;;16.30;74.50;;;;;;5044510;28;20124;-96
2023/10/05 19:45:04;;;;;;;5.35;2.88;;;16.20;74.50;;;;;;5038628;28;20108;-94
2023/10/05 19:47:32;;;;;;;7.88;3.22;;;16.30;74.60;;;;;;5057597;28;20041;-94
2023/10/05 19:49:58;;;;;;;7.93;3.92;;;16.20;74.70;;;;;;5054545;28;20055;-87
2023/10/05 19:52:23;;;;;;;6.88;2.97;;;16.20;74.80;;;;;;5053609;28;20083;-85
2023/10/05 19:54:49;;;;;;;5.38;3.15;;;16.20;74.90;;;;;;5053135;28;20048;-85
2023/10/05 19:57:15;;;;;;;6.68;3.03;;;16.20;74.90;;;;;;5052553;28;20060;-84
2023/10/05 19:59:41;;;;;;;8.35;3.35;;;16.20;75.10;;;;;;5052453;28;20086;-83
2023/10/05 20:02:08;;;;;;;9.70;3.78;;;16.10;75.10;;;;;;5054864;28;20044;-84
2023/10/05 20:04:34;;;;;;;9.20;3.65;;;16.20;75.20;;;;;;5059818;28;20052;-85
2023/10/05 20:07:00;;;;;;;7.68;3.13;;;16.40;75.50;;;;;;5053650;28;20029;-85
2023/10/05 20:09:27;;;;;;;7.07;3.03;;;16.20;75.50;;;;;;5036346;28;20036;-83
2023/10/05 20:11:53;;;;;;;7.03;3.08;;;16.10;75.50;;;;;;5052386;28;20160;-83
2023/10/05 20:14:23;;;;;;;7.13;3.35;;;16.10;75.60;;;;;;5060347;28;20045;-83
2023/10/05 20:16:49;;;;;;;6.25;3.75;;;16.20;75.70;;;;;;5068504;28;20086;-84
2023/10/05 20:19:15;;;;;;;8.57;3.22;;;16.10;75.80;;;;;;5052998;28;20122;-84
2023/10/05 20:21:44;;;;;;;7.03;2.88;;;16.10;75.90;;;;;;5053246;28;20128;-84
2023/10/05 20:24:10;;;;;;;4.88;2.63;;;16.10;76.10;;;;;;5059013;28;20056;-85
2023/10/05 20:26:36;;;;;;;7.35;3.58;;;16.10;76.10;;;;;;5053364;28;20037;-85
2023/10/05 20:29:04;;;;;;;11.30;3.85;;;16.00;76.10;;;;;;5052516;28;20037;-85
2023/10/05 20:31:33;;;;;;;7.32;3.60;;;16.10;76.20;;;;;;5036112;28;20036;-85
2023/10/05 20:33:59;;;;;;;5.60;3.28;;;16.00;76.30;;;;;;5056558;28;20063;-85
2023/10/05 20:36:25;;;;;;;9.80;4.00;;;16.00;76.30;;;;;;5054753;28;20481;-84
2023/10/05 20:38:51;;;;;;;6.43;3.20;;;16.10;76.50;;;;;;5035447;28;20040;-83
2023/10/05 20:41:18;;;;;;;9.45;2.92;;;16.10;76.50;;;;;;5059180;28;20080;-84
2023/10/05 20:43:43;;;;;;;7.55;3.45;;;16.00;76.40;;;;;;5052416;28;20115;-84
2023/10/05 20:46:11;;;;;;;7.38;3.00;;;16.00;76.40;;;;;;5034705;28;20120;-84
2023/10/05 20:48:37;;;;;;;6.82;3.15;;;16.00;76.40;;;;;;5079384;28;20025;-84
2023/10/05 20:51:03;;;;;;;6.65;2.85;;;16.00;76.50;;;;;;5068539;28;20095;-84
2023/10/05 20:53:30;;;;;;;9.13;3.38;;;16.00;76.40;;;;;;5068836;28;20076;-84
2023/10/05 20:55:55;;;;;;;9.52;3.55;;;16.10;76.50;;;;;;5068610;28;20037;-83
2023/10/05 20:58:21;;;;;;;6.50;3.38;;;16.00;76.40;;;;;;5051819;28;20099;-84
2023/10/05 21:00:49;;;;;;;9.57;3.45;;;16.60;76.80;;;;;;5055064;28;20075;-84
2023/10/05 21:03:14;;;;;;;8.20;3.38;;;15.90;76.40;;;;;;5051569;28;20045;-84
2023/10/05 21:05:40;;;;;;;9.63;3.72;;;15.90;76.40;;;;;;5031435;28;20542;-84
2023/10/05 21:08:06;;;;;;;7.47;2.90;;;15.90;76.40;;;;;;5054836;28;20049;-84
2023/10/05 21:10:31;;;;;;;6.50;2.90;;;15.90;76.30;;;;;;5048236;28;20041;-83
2023/10/05 21:12:57;;;;;;;7.82;2.85;;;15.90;76.30;;;;;;5051443;28;20461;-83
2023/10/05 21:15:23;;;;;;;7.82;3.72;;;15.90;76.30;;;;;;5051222;28;20051;-84
2023/10/05 21:17:49;;;;;;;7.30;2.60;;;15.90;76.30;;;;;;5057486;28;20037;-86
2023/10/05 21:20:14;;;;;;;7.13;2.70;;;15.90;76.30;;;;;;5061024;28;20037;-83
2023/10/05 21:22:41;;;;;;;8.30;2.90;;;15.90;76.30;;;;;;5051781;28;20040;-84
2023/10/05 21:25:07;;;;;;;7.72;3.00;;;15.90;76.30;;;;;;5051685;28;20037;-84
2023/10/05 21:27:33;;;;;;;5.40;2.72;;;15.90;76.20;;;;;;5067942;28;20047;-83
2023/10/05 21:29:58;;;;;;;7.82;3.60;;;15.80;76.20;;;;;;5068818;28;20123;-83
2023/10/05 21:32:24;;;;;;;8.75;3.08;;;16.10;76.30;;;;;;5034447;28;20032;-83
2023/10/05 21:34:54;;;;;;;6.53;2.72;;;15.90;76.30;;;;;;5058077;28;20059;-91
2023/10/05 21:37:20;;;;;;;7.18;2.60;;;15.80;76.20;;;;;;5069368;28;20556;-94
2023/10/05 21:39:50;;;;;;;7.82;3.30;;;15.80;76.20;;;;;;5070401;28;20081;-94
2023/10/05 21:42:16;;;;;;;7.40;3.05;;;15.80;76.20;;;;;;5046982;28;20075;-95
2023/10/05 21:44:42;;;;;;;4.22;2.65;;;16.10;76.50;;;;;;5041249;28;20238;-95
2023/10/05 21:47:07;;;;;;;12.13;3.63;;;15.80;76.30;;;;;;5080456;28;20037;-94
2023/10/05 21:49:33;;;;;;;12.00;3.45;;;15.70;76.20;;;;;;5066238;28;20393;-96
2023/10/05 21:51:58;;;;;;;6.07;2.88;;;15.80;76.30;;;;;;5069936;28;20041;-95
2023/10/05 21:54:24;;;;;;;6.85;3.40;;;15.70;76.20;;;;;;5062501;28;20048;-95
2023/10/05 21:56:49;;;;;;;9.07;3.55;;;15.70;76.30;;;;;;5036472;28;20554;-95
2023/10/05 21:59:15;;;;;;;7.55;4.18;;;15.70;76.40;;;;;;5053988;28;20037;-95
2023/10/05 22:01:41;;;;;;;8.73;3.22;;;16.30;76.80;;;;;;5056636;28;20039;-94
2023/10/05 22:04:07;;;;;;;6.47;3.50;;;15.70;76.50;;;;;;5059184;28;20043;-95
2023/10/05 22:06:35;;;;;;;9.65;4.07;;;15.60;76.50;;;;;;5055409;28;20024;-95
2023/10/05 22:09:01;;;;;;;7.80;3.88;;;15.60;76.70;;;;;;5101344;28;20036;-94
2023/10/05 22:11:26;;;;;;;7.03;3.20;;;15.60;76.80;;;;;;5073991;28;20024;-96
2023/10/05 22:13:52;;;;;;;6.22;3.35;;;15.60;76.90;;;;;;5091146;28;20045;-96
2023/10/05 22:16:19;;;;;;;4.88;2.75;;;15.60;76.90;;;;;;5087977;28;20077;-95
2023/10/05 22:18:45;;;;;;;7.55;3.55;;;15.50;77.00;;;;;;5066427;28;20047;-95
2023/10/05 22:21:11;;;;;;;7.32;3.30;;;15.50;77.00;;;;;;5074053;28;20021;-94
2023/10/05 22:23:37;;;;;;;10.98;4.07;;;15.50;77.00;;;;;;5045857;28;20045;-95
2023/10/05 22:26:03;;;;;;;8.95;3.28;;;15.60;77.10;;;;;;5061136;28;20033;-95
2023/10/05 22:28:29;;;;;;;7.82;4.07;;;15.50;77.00;;;;;;5044129;28;20037;-95
2023/10/05 22:30:57;;;;;;;7.28;3.30;;;15.50;77.00;;;;;;5046072;28;20032;-96
2023/10/05 22:33:22;;;;;;;6.80;3.45;;;15.50;77.00;;;;;;5039606;28;20041;-95
2023/10/05 22:35:48;;;;;;;7.60;3.70;;;15.50;76.90;;;;;;5055280;28;20041;-95
2023/10/05 22:38:14;;;;;;;8.35;3.10;;;15.50;76.90;;;;;;5037888;28;20087;-95
2023/10/05 22:40:40;;;;;;;9.30;4.22;;;15.90;77.20;;;;;;5039021;28;20052;-96
2023/10/05 22:43:10;;;;;;;6.30;3.50;;;15.50;76.90;;;;;;5053456;28;20041;-95
2023/10/05 22:45:36;;;;;;;9.35;4.05;;;15.50;76.80;;;;;;5035482;28;20150;-96
2023/10/05 22:48:03;;;;;;;6.85;3.00;;;15.50;76.80;;;;;;5035929;28;20070;-95
2023/10/05 22:50:30;;;;;;;5.65;3.10;;;15.50;76.70;;;;;;5055175;28;20066;-96
2023/10/05 22:52:56;;;;;;;7.15;3.78;;;15.50;76.70;;;;;;5072863;28;20033;-96
2023/10/05 22:55:22;;;;;;;5.13;2.78;;;15.50;76.70;;;;;;5050935;28;20041;-95
2023/10/05 22:57:47;;;;;;;9.50;4.55;;;15.50;76.80;;;;;;5035593;28;20056;-95
2023/10/05 23:00:15;;;;;;;5.70;3.30;;;15.50;76.70;;;;;;5052522;28;20045;-95
2023/10/05 23:02:40;;;;;;;7.57;3.88;;;15.50;76.70;;;;;;5078958;28;20123;-94
2023/10/05 23:05:07;;;;;;;7.50;3.30;;;15.50;76.70;;;;;;5068044;28;20071;-95
2023/10/05 23:07:34;;;;;;;8.65;3.38;;;15.50;76.70;;;;;;5040341;28;20576;-92
2023/10/05 23:10:05;;;;;;;8.77;3.65;;;15.50;76.70;;;;;;5039821;28;20045;-94
2023/10/05 23:12:30;;;;;;;8.48;3.80;;;15.50;76.60;;;;;;5040123;28;20040;-96
2023/10/05 23:15:00;;;;;;;7.43;3.30;;;15.50;76.60;;;;;;5040736;28;20107;-95
2023/10/05 23:17:27;;;;;;;11.05;3.97;;;15.50;76.70;;;;;;5038928;28;20051;-95
2023/10/05 23:19:53;;;;;;;7.65;3.40;;;15.50;76.80;;;;;;5039595;28;20045;-95
2023/10/05 23:22:18;;;;;;;7.30;3.83;;;15.50;76.70;;;;;;5039557;28;20092;-94
2023/10/05 23:24:46;;;;;;;7.18;3.45;;;15.50;76.60;;;;;;5043098;28;20067;-95
2023/10/05 23:27:12;;;;;;;8.77;3.75;;;15.50;76.60;;;;;;5050866;28;20073;-94
2023/10/05 23:29:38;;;;;;;10.75;4.20;;;15.50;76.60;;;;;;5051854;28;20464;-94
2023/10/05 23:32:06;;;;;;;9.13;3.95;;;15.50;76.60;;;;;;5055481;28;20123;-94
2023/10/05 23:34:37;;;;;;;10.27;3.53;;;15.50;76.60;;;;;;5039537;28;20072;-94
2023/10/05 23:37:04;;;;;;;8.50;3.80;;;15.40;76.50;;;;;;5056351;28;20132;-94
2023/10/05 23:39:31;;;;;;;10.25;4.40;;;15.50;76.60;;;;;;5039370;28;20053;-96
2023/10/05 23:42:05;;;;;;;10.60;4.00;;;15.40;76.50;;;;;;5039608;28;20409;-94
2023/10/05 23:44:31;;;;;;;8.20;3.83;;;15.50;76.60;;;;;;5057244;28;20033;-90
2023/10/05 23:46:57;;;;;;;8.25;3.78;;;15.50;76.60;;;;;;5041780;28;20032;-93
2023/10/05 23:49:24;;;;;;;7.88;3.30;;;15.70;76.70;;;;;;5039513;28;20084;-95
2023/10/05 23:51:50;;;;;;;5.85;3.10;;;15.40;76.50;;;;;;5055252;28;20049;-94
2023/10/05 23:54:17;;;;;;;7.57;3.00;;;15.40;76.40;;;;;;5038892;28;20076;-92
2023/10/05 23:56:44;;;;;;;6.78;3.40;;;15.40;76.50;;;;;;5037911;28;20442;-91
2023/10/05 23:59:14;;;;;;;9.05;3.28;;;15.40;76.60;;;;;;5041083;28;20049;-93
